sensor_id;sensor_type;location;lat;lon;timestamp;pressure;altitude;pressure_sealevel;temperature
63689;BMP280;54895;40.928;14.480;2022-10-26T00:01:01;101853.22;;;21.74
63689;BMP280;54895;40.928;14.480;2022-10-26T00:03:27;101833.66;;;21.30
63689;BMP280;54895;40.928;14.480;2022-10-26T00:05:54;101824.94;;;21.32
63689;BMP280;54895;40.928;14.480;2022-10-26T00:08:20;101818.13;;;21.31
63689;BMP280;54895;40.928;14.480;2022-10-26T00:10:46;101819.31;;;21.20
63689;BMP280;54895;40.928;14.480;2022-10-26T00:13:12;101808.78;;;21.24
63689;BMP280;54895;40.928;14.480;2022-10-26T00:15:39;101817.50;;;21.23
63689;BMP280;54895;40.928;14.480;2022-10-26T00:18:05;101817.19;;;21.19
63689;BMP280;54895;40.928;14.480;2022-10-26T00:20:31;101814.94;;;21.25
63689;BMP280;54895;40.928;14.480;2022-10-26T00:22:57;101809.44;;;20.89
63689;BMP280;54895;40.928;14.480;2022-10-26T00:25:23;101800.50;;;20.96
63689;BMP280;54895;40.928;14.480;2022-10-26T00:27:49;101794.00;;;20.99
63689;BMP280;54895;40.928;14.480;2022-10-26T00:30:16;101811.47;;;21.15
63689;BMP280;54895;40.928;14.480;2022-10-26T00:32:42;101822.59;;;21.19
63689;BMP280;54895;40.928;14.480;2022-10-26T00:35:08;101826.91;;;21.22
63689;BMP280;54895;40.928;14.480;2022-10-26T00:37:34;101832.63;;;21.26
63689;BMP280;54895;40.928;14.480;2022-10-26T00:40:00;101853.97;;;21.75
63689;BMP280;54895;40.928;14.480;2022-10-26T00:42:26;101873.59;;;22.02
63689;BMP280;54895;40.928;14.480;2022-10-26T00:44:56;101875.38;;;21.90
63689;BMP280;54895;40.928;14.480;2022-10-26T00:47:26;101851.59;;;21.35
63689;BMP280;54895;40.928;14.480;2022-10-26T00:49:53;101834.31;;;21.04
63689;BMP280;54895;40.928;14.480;2022-10-26T00:52:20;101828.59;;;21.00
63689;BMP280;54895;40.928;14.480;2022-10-26T00:54:47;101831.88;;;20.99
63689;BMP280;54895;40.928;14.480;2022-10-26T00:57:14;101822.22;;;20.88
63689;BMP280;54895;40.928;14.480;2022-10-26T00:59:41;101807.00;;;20.67
63689;BMP280;54895;40.928;14.480;2022-10-26T01:02:07;101788.19;;;20.35
63689;BMP280;54895;40.928;14.480;2022-10-26T01:04:33;101789.53;;;20.43
63689;BMP280;54895;40.928;14.480;2022-10-26T01:07:00;101788.91;;;20.35
63689;BMP280;54895;40.928;14.480;2022-10-26T01:09:28;101805.63;;;20.58
63689;BMP280;54895;40.928;14.480;2022-10-26T01:11:54;101813.88;;;20.60
63689;BMP280;54895;40.928;14.480;2022-10-26T01:14:20;101813.09;;;20.67
63689;BMP280;54895;40.928;14.480;2022-10-26T01:19:43;101818.75;;;20.78
63689;BMP280;54895;40.928;14.480;2022-10-26T01:22:20;101810.88;;;20.73
63689;BMP280;54895;40.928;14.480;2022-10-26T01:30:15;101813.88;;;20.60
63689;BMP280;54895;40.928;14.480;2022-10-26T01:37:38;101769.63;;;20.14
63689;BMP280;54895;40.928;14.480;2022-10-26T01:40:17;101763.59;;;20.23
63689;BMP280;54895;40.928;14.480;2022-10-26T01:42:46;101778.41;;;20.39
63689;BMP280;54895;40.928;14.480;2022-10-26T01:45:13;101789.53;;;20.60
63689;BMP280;54895;40.928;14.480;2022-10-26T01:47:39;101803.72;;;20.68
63689;BMP280;54895;40.928;14.480;2022-10-26T01:50:06;101803.06;;;20.60
63689;BMP280;54895;40.928;14.480;2022-10-26T01:52:33;101805.63;;;20.58
63689;BMP280;54895;40.928;14.480;2022-10-26T01:55:00;101796.63;;;20.56
63689;BMP280;54895;40.928;14.480;2022-10-26T01:57:26;101794.81;;;20.41
63689;BMP280;54895;40.928;14.480;2022-10-26T02:13:28;101749.22;;;19.79
63689;BMP280;54895;40.928;14.480;2022-10-26T02:16:02;101757.69;;;20.00
63689;BMP280;54895;40.928;14.480;2022-10-26T02:19:05;101762.63;;;19.94
63689;BMP280;54895;40.928;14.480;2022-10-26T02:21:24;101765.03;;;20.07
63689;BMP280;54895;40.928;14.480;2022-10-26T02:23:53;101765.19;;;20.09
63689;BMP280;54895;40.928;14.480;2022-10-26T02:26:21;101758.84;;;20.14
63689;BMP280;54895;40.928;14.480;2022-10-26T02:28:49;101741.44;;;19.83
63689;BMP280;54895;40.928;14.480;2022-10-26T02:31:17;101728.94;;;19.71
63689;BMP280;54895;40.928;14.480;2022-10-26T02:33:48;101752.72;;;19.89
63689;BMP280;54895;40.928;14.480;2022-10-26T02:36:16;101779.44;;;20.10
63689;BMP280;54895;40.928;14.480;2022-10-26T02:38:43;101785.50;;;20.10
63689;BMP280;54895;40.928;14.480;2022-10-26T02:41:11;101773.63;;;20.13
63689;BMP280;54895;40.928;14.480;2022-10-26T02:43:40;101778.97;;;20.21
63689;BMP280;54895;40.928;14.480;2022-10-26T02:46:09;101778.88;;;20.28
63689;BMP280;54895;40.928;14.480;2022-10-26T02:48:38;101786.13;;;20.26
63689;BMP280;54895;40.928;14.480;2022-10-26T02:56:11;101794.94;;;20.26
63689;BMP280;54895;40.928;14.480;2022-10-26T02:58:42;101793.19;;;20.21
63689;BMP280;54895;40.928;14.480;2022-10-26T03:01:10;101793.44;;;20.16
63689;BMP280;54895;40.928;14.480;2022-10-26T03:03:37;101774.84;;;19.95
63689;BMP280;54895;40.928;14.480;2022-10-26T03:06:03;101780.84;;;20.11
63689;BMP280;54895;40.928;14.480;2022-10-26T03:08:29;101789.03;;;20.20
63689;BMP280;54895;40.928;14.480;2022-10-26T03:10:55;101792.25;;;20.26
63689;BMP280;54895;40.928;14.480;2022-10-26T03:13:22;101800.19;;;20.24
63689;BMP280;54895;40.928;14.480;2022-10-26T03:15:54;101788.28;;;20.27
63689;BMP280;54895;40.928;14.480;2022-10-26T03:18:20;101800.91;;;20.25
63689;BMP280;54895;40.928;14.480;2022-10-26T03:20:46;101802.78;;;20.15
63689;BMP280;54895;40.928;14.480;2022-10-26T03:23:12;101792.88;;;20.17
63689;BMP280;54895;40.928;14.480;2022-10-26T03:25:38;101794.94;;;20.26
63689;BMP280;54895;40.928;14.480;2022-10-26T03:28:04;101800.19;;;20.24
63689;BMP280;54895;40.928;14.480;2022-10-26T03:30:30;101794.78;;;20.24
63689;BMP280;54895;40.928;14.480;2022-10-26T03:32:57;101806.72;;;20.21
63689;BMP280;54895;40.928;14.480;2022-10-26T03:35:23;101803.19;;;20.11
63689;BMP280;54895;40.928;14.480;2022-10-26T03:37:49;101803.34;;;20.13
63689;BMP280;54895;40.928;14.480;2022-10-26T03:40:15;101806.03;;;20.13
63689;BMP280;54895;40.928;14.480;2022-10-26T03:42:41;101805.25;;;20.20
63689;BMP280;54895;40.928;14.480;2022-10-26T03:45:08;101800.19;;;20.24
63689;BMP280;54895;40.928;14.480;2022-10-26T03:47:39;101812.88;;;20.14
63689;BMP280;54895;40.928;14.480;2022-10-26T03:50:07;101806.47;;;20.02
63689;BMP280;54895;40.928;14.480;2022-10-26T03:52:33;101817.91;;;20.18
63689;BMP280;54895;40.928;14.480;2022-10-26T03:54:59;101822.94;;;20.21
63689;BMP280;54895;40.928;14.480;2022-10-26T03:57:25;101842.84;;;20.50
63689;BMP280;54895;40.928;14.480;2022-10-26T03:59:51;101830.22;;;20.11
63689;BMP280;54895;40.928;14.480;2022-10-26T04:02:17;101843.50;;;20.17
63689;BMP280;54895;40.928;14.480;2022-10-26T04:04:43;101827.09;;;19.90
63689;BMP280;54895;40.928;14.480;2022-10-26T04:07:09;101821.09;;;19.75
63689;BMP280;54895;40.928;14.480;2022-10-26T04:09:35;101830.84;;;19.70
63689;BMP280;54895;40.928;14.480;2022-10-26T04:12:01;101837.94;;;19.58
63689;BMP280;54895;40.928;14.480;2022-10-26T04:14:27;101841.00;;;19.55
63689;BMP280;54895;40.928;14.480;2022-10-26T04:16:53;101835.56;;;19.62
63689;BMP280;54895;40.928;14.480;2022-10-26T04:19:19;101832.72;;;19.60
63689;BMP280;54895;40.928;14.480;2022-10-26T04:21:45;101834.06;;;19.44
63689;BMP280;54895;40.928;14.480;2022-10-26T04:24:12;101834.06;;;19.44
63689;BMP280;54895;40.928;14.480;2022-10-26T04:26:38;101823.50;;;19.31
63689;BMP280;54895;40.928;14.480;2022-10-26T04:29:04;101825.25;;;19.36
63689;BMP280;54895;40.928;14.480;2022-10-26T04:31:31;101824.34;;;19.41
63689;BMP280;54895;40.928;14.480;2022-10-26T04:33:57;101812.13;;;19.40
63689;BMP280;54895;40.928;14.480;2022-10-26T04:36:23;101829.50;;;19.54
63689;BMP280;54895;40.928;14.480;2022-10-26T04:38:49;101838.19;;;19.45
63689;BMP280;54895;40.928;14.480;2022-10-26T04:41:15;101831.06;;;19.25
63689;BMP280;54895;40.928;14.480;2022-10-26T04:43:42;101802.66;;;19.24
63689;BMP280;54895;40.928;14.480;2022-10-26T04:46:08;101802.34;;;19.20
63689;BMP280;54895;40.928;14.480;2022-10-26T04:48:34;101796.63;;;19.01
63689;BMP280;54895;40.928;14.480;2022-10-26T04:51:00;101782.81;;;18.97
63689;BMP280;54895;40.928;14.480;2022-10-26T04:53:26;101779.50;;;19.06
63689;BMP280;54895;40.928;14.480;2022-10-26T04:55:56;101774.50;;;18.95
63689;BMP280;54895;40.928;14.480;2022-10-26T04:58:22;101766.19;;;19.08
63689;BMP280;54895;40.928;14.480;2022-10-26T05:00:48;101792.22;;;19.28
63689;BMP280;54895;40.928;14.480;2022-10-26T05:03:15;101793.63;;;19.29
63689;BMP280;54895;40.928;14.480;2022-10-26T05:05:42;101780.00;;;19.20
63689;BMP280;54895;40.928;14.480;2022-10-26T05:08:08;101790.38;;;19.31
63689;BMP280;54895;40.928;14.480;2022-10-26T05:10:34;101789.72;;;19.23
63689;BMP280;54895;40.928;14.480;2022-10-26T05:13:00;101788.84;;;19.20
63689;BMP280;54895;40.928;14.480;2022-10-26T05:15:27;101829.19;;;19.50
63689;BMP280;54895;40.928;14.480;2022-10-26T05:17:56;101875.41;;;19.86
63689;BMP280;54895;40.928;14.480;2022-10-26T05:20:23;101872.34;;;20.14
63689;BMP280;54895;40.928;14.480;2022-10-26T05:22:54;101865.94;;;19.70
63689;BMP280;54895;40.928;14.480;2022-10-26T05:25:21;101845.44;;;19.28
63689;BMP280;54895;40.928;14.480;2022-10-26T05:27:47;101825.75;;;19.10
63689;BMP280;54895;40.928;14.480;2022-10-26T05:30:13;101812.50;;;18.82
63689;BMP280;54895;40.928;14.480;2022-10-26T05:32:39;101780.13;;;18.82
63689;BMP280;54895;40.928;14.480;2022-10-26T05:35:05;101823.56;;;19.16
63689;BMP280;54895;40.928;14.480;2022-10-26T05:37:31;101835.06;;;19.24
63689;BMP280;54895;40.928;14.480;2022-10-26T05:39:57;101837.00;;;19.31
63689;BMP280;54895;40.928;14.480;2022-10-26T05:42:23;101837.84;;;19.41
63689;BMP280;54895;40.928;14.480;2022-10-26T05:44:50;101839.22;;;19.57
63689;BMP280;54895;40.928;14.480;2022-10-26T05:47:16;101850.31;;;19.69
63689;BMP280;54895;40.928;14.480;2022-10-26T05:49:42;101850.69;;;19.65
63689;BMP280;54895;40.928;14.480;2022-10-26T05:52:08;101857.34;;;19.64
63689;BMP280;54895;40.928;14.480;2022-10-26T05:54:34;101858.56;;;19.71
63689;BMP280;54895;40.928;14.480;2022-10-26T05:57:00;101873.50;;;20.04
63689;BMP280;54895;40.928;14.480;2022-10-26T05:59:26;101871.50;;;19.80
63689;BMP280;54895;40.928;14.480;2022-10-26T06:04:24;101870.09;;;19.71
63689;BMP280;54895;40.928;14.480;2022-10-26T06:06:53;101880.06;;;19.93
63689;BMP280;54895;40.928;14.480;2022-10-26T06:09:19;101880.75;;;20.01
63689;BMP280;54895;40.928;14.480;2022-10-26T06:11:46;101883.94;;;20.07
63689;BMP280;54895;40.928;14.480;2022-10-26T06:14:12;101888.91;;;20.18
63689;BMP280;54895;40.928;14.480;2022-10-26T06:16:41;101894.63;;;20.22
63689;BMP280;54895;40.928;14.480;2022-10-26T06:24:16;101907.41;;;20.46
63689;BMP280;54895;40.928;14.480;2022-10-26T06:26:46;101909.84;;;20.35
63689;BMP280;54895;40.928;14.480;2022-10-26T06:32:01;101910.97;;;20.49
63689;BMP280;54895;40.928;14.480;2022-10-26T06:34:30;101915.38;;;20.44
63689;BMP280;54895;40.928;14.480;2022-10-26T06:36:57;101921.88;;;20.41
63689;BMP280;54895;40.928;14.480;2022-10-26T06:39:24;101928.94;;;20.61
63689;BMP280;54895;40.928;14.480;2022-10-26T06:41:52;101931.91;;;20.48
63689;BMP280;54895;40.928;14.480;2022-10-26T06:44:22;101937.72;;;20.86
63689;BMP280;54895;40.928;14.480;2022-10-26T06:46:56;101942.00;;;20.89
63689;BMP280;54895;40.928;14.480;2022-10-26T06:54:48;101959.69;;;21.58
63689;BMP280;54895;40.928;14.480;2022-10-26T06:57:18;101973.56;;;21.71
63689;BMP280;54895;40.928;14.480;2022-10-26T06:59:52;101977.63;;;21.80
63689;BMP280;54895;40.928;14.480;2022-10-26T07:02:18;101978.59;;;21.75
63689;BMP280;54895;40.928;14.480;2022-10-26T07:04:45;101978.81;;;21.86
63689;BMP280;54895;40.928;14.480;2022-10-26T07:07:11;101987.50;;;22.11
63689;BMP280;54895;40.928;14.480;2022-10-26T07:09:39;102000.56;;;22.67
63689;BMP280;54895;40.928;14.480;2022-10-26T07:12:05;102007.50;;;22.51
63689;BMP280;54895;40.928;14.480;2022-10-26T07:14:31;102003.78;;;22.56
63689;BMP280;54895;40.928;14.480;2022-10-26T07:16:57;102004.13;;;22.79
63689;BMP280;54895;40.928;14.480;2022-10-26T07:19:23;101995.72;;;22.94
63689;BMP280;54895;40.928;14.480;2022-10-26T07:21:49;101991.88;;;22.97
63689;BMP280;54895;40.928;14.480;2022-10-26T07:24:16;101989.00;;;22.95
63689;BMP280;54895;40.928;14.480;2022-10-26T07:26:42;101950.34;;;22.49
63689;BMP280;54895;40.928;14.480;2022-10-26T07:29:08;101936.41;;;22.62
63689;BMP280;54895;40.928;14.480;2022-10-26T07:31:34;101935.97;;;22.75
63689;BMP280;54895;40.928;14.480;2022-10-26T07:34:01;101924.44;;;22.84
63689;BMP280;54895;40.928;14.480;2022-10-26T07:36:27;101904.72;;;22.74
63689;BMP280;54895;40.928;14.480;2022-10-26T07:38:54;101901.25;;;22.83
63689;BMP280;54895;40.928;14.480;2022-10-26T07:41:20;101913.41;;;23.11
63689;BMP280;54895;40.928;14.480;2022-10-26T07:43:46;101907.25;;;23.10
63689;BMP280;54895;40.928;14.480;2022-10-26T07:46:13;101915.38;;;23.29
63689;BMP280;54895;40.928;14.480;2022-10-26T07:48:40;101925.19;;;23.53
63689;BMP280;54895;40.928;14.480;2022-10-26T07:51:06;101938.88;;;23.74
63689;BMP280;54895;40.928;14.480;2022-10-26T07:53:32;101951.63;;;24.02
63689;BMP280;54895;40.928;14.480;2022-10-26T07:55:58;101947.97;;;23.88
63689;BMP280;54895;40.928;14.480;2022-10-26T07:58:24;101946.91;;;24.02
63689;BMP280;54895;40.928;14.480;2022-10-26T08:00:52;101961.25;;;24.24
63689;BMP280;54895;40.928;14.480;2022-10-26T08:03:18;101963.19;;;24.33
63689;BMP280;54895;40.928;14.480;2022-10-26T08:05:45;101975.88;;;24.40
63689;BMP280;54895;40.928;14.480;2022-10-26T08:08:12;101995.97;;;24.77
63689;BMP280;54895;40.928;14.480;2022-10-26T08:10:42;101985.13;;;24.35
63689;BMP280;54895;40.928;14.480;2022-10-26T08:13:08;101965.44;;;23.85
63689;BMP280;54895;40.928;14.480;2022-10-26T08:15:35;101958.94;;;23.99
63689;BMP280;54895;40.928;14.480;2022-10-26T08:18:01;101977.59;;;24.45
63689;BMP280;54895;40.928;14.480;2022-10-26T08:20:27;101968.06;;;24.34
63689;BMP280;54895;40.928;14.480;2022-10-26T08:22:56;101962.28;;;24.40
63689;BMP280;54895;40.928;14.480;2022-10-26T08:25:22;101966.19;;;24.58
63689;BMP280;54895;40.928;14.480;2022-10-26T08:27:49;101972.00;;;24.85
63689;BMP280;54895;40.928;14.480;2022-10-26T08:30:15;101982.00;;;24.71
63689;BMP280;54895;40.928;14.480;2022-10-26T08:32:41;101979.97;;;24.92
63689;BMP280;54895;40.928;14.480;2022-10-26T08:35:07;101984.34;;;24.86
63689;BMP280;54895;40.928;14.480;2022-10-26T08:37:34;101990.69;;;24.79
63689;BMP280;54895;40.928;14.480;2022-10-26T08:40:00;101973.19;;;24.61
63689;BMP280;54895;40.928;14.480;2022-10-26T08:42:28;101955.91;;;24.05
63689;BMP280;54895;40.928;14.480;2022-10-26T08:44:57;101955.75;;;24.54
63689;BMP280;54895;40.928;14.480;2022-10-26T08:47:27;101969.38;;;24.87
63689;BMP280;54895;40.928;14.480;2022-10-26T08:52:23;102009.38;;;25.37
63689;BMP280;54895;40.928;14.480;2022-10-26T08:54:51;102013.59;;;25.17
63689;BMP280;54895;40.928;14.480;2022-10-26T08:57:35;101993.41;;;24.58
63689;BMP280;54895;40.928;14.480;2022-10-26T09:00:04;101974.22;;;24.56
63689;BMP280;54895;40.928;14.480;2022-10-26T09:02:30;101958.13;;;23.87
63689;BMP280;54895;40.928;14.480;2022-10-26T09:04:57;101928.59;;;23.63
63689;BMP280;54895;40.928;14.480;2022-10-26T09:18:15;101993.03;;;24.52
63689;BMP280;54895;40.928;14.480;2022-10-26T09:20:53;102001.94;;;24.64
63689;BMP280;54895;40.928;14.480;2022-10-26T09:23:37;102010.69;;;24.83
63689;BMP280;54895;40.928;14.480;2022-10-26T09:26:08;102021.84;;;25.08
63689;BMP280;54895;40.928;14.480;2022-10-26T09:28:38;102015.19;;;24.58
63689;BMP280;54895;40.928;14.480;2022-10-26T09:31:05;102007.25;;;24.83
63689;BMP280;54895;40.928;14.480;2022-10-26T09:33:35;102029.59;;;25.23
63689;BMP280;54895;40.928;14.480;2022-10-26T09:36:05;102013.84;;;25.01
63689;BMP280;54895;40.928;14.480;2022-10-26T09:38:43;102019.03;;;25.17
63689;BMP280;54895;40.928;14.480;2022-10-26T09:41:28;102033.19;;;25.37
63689;BMP280;54895;40.928;14.480;2022-10-26T09:44:00;102052.94;;;25.70
63689;BMP280;54895;40.928;14.480;2022-10-26T09:46:30;102057.56;;;25.67
63689;BMP280;54895;40.928;14.480;2022-10-26T09:48:59;102060.22;;;26.11
63689;BMP280;54895;40.928;14.480;2022-10-26T09:51:26;102063.91;;;25.93
63689;BMP280;54895;40.928;14.480;2022-10-26T09:53:53;102051.78;;;25.73
63689;BMP280;54895;40.928;14.480;2022-10-26T09:56:20;102051.91;;;25.42
63689;BMP280;54895;40.928;14.480;2022-10-26T09:58:49;102053.25;;;25.41
63689;BMP280;54895;40.928;14.480;2022-10-26T10:01:29;102044.75;;;25.58
63689;BMP280;54895;40.928;14.480;2022-10-26T10:09:25;102054.03;;;26.22
63689;BMP280;54895;40.928;14.480;2022-10-26T10:11:58;102064.56;;;26.39
63689;BMP280;54895;40.928;14.480;2022-10-26T10:14:33;102059.47;;;25.76
63689;BMP280;54895;40.928;14.480;2022-10-26T10:17:03;102055.75;;;25.60
63689;BMP280;54895;40.928;14.480;2022-10-26T10:19:30;102051.53;;;26.15
63689;BMP280;54895;40.928;14.480;2022-10-26T10:24:56;102069.44;;;27.25
63689;BMP280;54895;40.928;14.480;2022-10-26T10:27:22;102069.38;;;27.36
63689;BMP280;54895;40.928;14.480;2022-10-26T10:29:52;102071.50;;;27.38
63689;BMP280;54895;40.928;14.480;2022-10-26T10:32:21;102078.28;;;27.12
63689;BMP280;54895;40.928;14.480;2022-10-26T10:34:51;102075.00;;;27.27
63689;BMP280;54895;40.928;14.480;2022-10-26T10:37:22;102069.25;;;27.59
63689;BMP280;54895;40.928;14.480;2022-10-26T10:39:49;102069.66;;;27.29
63689;BMP280;54895;40.928;14.480;2022-10-26T10:42:22;102069.25;;;27.72
63689;BMP280;54895;40.928;14.480;2022-10-26T10:44:53;102065.44;;;27.77
63689;BMP280;54895;40.928;14.480;2022-10-26T10:47:23;102064.72;;;27.39
63689;BMP280;54895;40.928;14.480;2022-10-26T10:49:51;102053.72;;;27.63
63689;BMP280;54895;40.928;14.480;2022-10-26T10:52:22;102061.56;;;27.82
63689;BMP280;54895;40.928;14.480;2022-10-26T10:54:49;102061.56;;;27.82
63689;BMP280;54895;40.928;14.480;2022-10-26T10:57:28;102065.50;;;27.79
63689;BMP280;54895;40.928;14.480;2022-10-26T11:00:03;102054.63;;;27.16
63689;BMP280;54895;40.928;14.480;2022-10-26T11:02:49;102064.41;;;28.11
63689;BMP280;54895;40.928;14.480;2022-10-26T11:08:02;102051.72;;;27.01
63689;BMP280;54895;40.928;14.480;2022-10-26T11:10:32;102053.03;;;27.63
63689;BMP280;54895;40.928;14.480;2022-10-26T11:13:01;102053.25;;;27.80
63689;BMP280;54895;40.928;14.480;2022-10-26T11:15:29;102049.25;;;28.37
63689;BMP280;54895;40.928;14.480;2022-10-26T11:18:05;102041.16;;;28.97
63689;BMP280;54895;40.928;14.480;2022-10-26T11:20:36;102051.66;;;28.58
63689;BMP280;54895;40.928;14.480;2022-10-26T11:23:07;102043.78;;;28.37
63689;BMP280;54895;40.928;14.480;2022-10-26T11:25:36;102053.66;;;28.15
63689;BMP280;54895;40.928;14.480;2022-10-26T11:28:13;102046.56;;;28.24
63689;BMP280;54895;40.928;14.480;2022-10-26T11:30:43;102027.63;;;28.14
63689;BMP280;54895;40.928;14.480;2022-10-26T11:33:21;102034.31;;;28.11
63689;BMP280;54895;40.928;14.480;2022-10-26T11:48:28;102030.75;;;29.24
63689;BMP280;54895;40.928;14.480;2022-10-26T11:51:16;102029.91;;;29.66
63689;BMP280;54895;40.928;14.480;2022-10-26T11:53:43;102030.78;;;29.09
63689;BMP280;54895;40.928;14.480;2022-10-26T11:56:12;102034.50;;;28.71
63689;BMP280;54895;40.928;14.480;2022-10-26T11:58:38;102020.78;;;28.29
63689;BMP280;54895;40.928;14.480;2022-10-26T12:01:09;102018.34;;;28.48
63689;BMP280;54895;40.928;14.480;2022-10-26T12:03:37;102013.72;;;28.66
63689;BMP280;54895;40.928;14.480;2022-10-26T12:06:10;102026.81;;;28.83
63689;BMP280;54895;40.928;14.480;2022-10-26T12:08:37;102019.53;;;29.34
63689;BMP280;54895;40.928;14.480;2022-10-26T12:11:25;102016.88;;;29.36
63689;BMP280;54895;40.928;14.480;2022-10-26T12:13:58;102012.97;;;28.94
63689;BMP280;54895;40.928;14.480;2022-10-26T12:19:13;102013.94;;;29.62
63689;BMP280;54895;40.928;14.480;2022-10-26T12:21:40;102009.66;;;29.75
63689;BMP280;54895;40.928;14.480;2022-10-26T12:24:25;102013.69;;;29.56
63689;BMP280;54895;40.928;14.480;2022-10-26T12:26:52;102012.00;;;29.65
63689;BMP280;54895;40.928;14.480;2022-10-26T12:29:27;102011.47;;;29.07
63689;BMP280;54895;40.928;14.480;2022-10-26T12:31:53;102005.63;;;29.76
63689;BMP280;54895;40.928;14.480;2022-10-26T12:44:38;101996.91;;;29.81
63689;BMP280;54895;40.928;14.480;2022-10-26T12:47:06;101999.94;;;29.87
63689;BMP280;54895;40.928;14.480;2022-10-26T12:52:20;101993.94;;;28.83
63689;BMP280;54895;40.928;14.480;2022-10-26T12:54:57;101994.63;;;28.68
63689;BMP280;54895;40.928;14.480;2022-10-26T12:57:34;101992.91;;;29.36
63689;BMP280;54895;40.928;14.480;2022-10-26T13:00:04;101992.00;;;29.47
63689;BMP280;54895;40.928;14.480;2022-10-26T13:07:36;101985.69;;;30.43
63689;BMP280;54895;40.928;14.480;2022-10-26T13:12:34;101986.50;;;29.95
63689;BMP280;54895;40.928;14.480;2022-10-26T13:15:02;101991.50;;;30.51
63689;BMP280;54895;40.928;14.480;2022-10-26T13:17:30;101992.66;;;30.11
63689;BMP280;54895;40.928;14.480;2022-10-26T13:20:01;101996.75;;;30.62
63689;BMP280;54895;40.928;14.480;2022-10-26T13:22:28;101987.50;;;30.91
63689;BMP280;54895;40.928;14.480;2022-10-26T13:24:56;101987.78;;;30.99
63689;BMP280;54895;40.928;14.480;2022-10-26T13:32:32;101991.28;;;30.82
63689;BMP280;54895;40.928;14.480;2022-10-26T13:34:59;101986.03;;;31.27
63689;BMP280;54895;40.928;14.480;2022-10-26T13:37:26;101991.41;;;31.03
63689;BMP280;54895;40.928;14.480;2022-10-26T13:39:53;101986.22;;;30.94
63689;BMP280;54895;40.928;14.480;2022-10-26T13:42:22;101991.59;;;31.29
63689;BMP280;54895;40.928;14.480;2022-10-26T13:48:02;101972.91;;;31.06
63689;BMP280;54895;40.928;14.480;2022-10-26T13:50:05;101979.78;;;30.87
63689;BMP280;54895;40.928;14.480;2022-10-26T13:52:37;101975.97;;;30.77
63689;BMP280;54895;40.928;14.480;2022-10-26T13:55:07;101979.78;;;30.87
63689;BMP280;54895;40.928;14.480;2022-10-26T13:57:36;101983.88;;;30.67
63689;BMP280;54895;40.928;14.480;2022-10-26T14:00:07;101988.38;;;30.41
63689;BMP280;54895;40.928;14.480;2022-10-26T14:02:40;101977.50;;;30.10
63689;BMP280;54895;40.928;14.480;2022-10-26T14:05:08;101982.44;;;30.49
63689;BMP280;54895;40.928;14.480;2022-10-26T14:07:35;101982.88;;;30.95
63689;BMP280;54895;40.928;14.480;2022-10-26T14:10:02;101986.25;;;30.57
63689;BMP280;54895;40.928;14.480;2022-10-26T14:12:29;101980.44;;;30.86
63689;BMP280;54895;40.928;14.480;2022-10-26T14:15:05;101987.50;;;31.30
63689;BMP280;54895;40.928;14.480;2022-10-26T14:17:31;101992.50;;;31.16
63689;BMP280;54895;40.928;14.480;2022-10-26T14:19:58;101985.41;;;31.09
63689;BMP280;54895;40.928;14.480;2022-10-26T14:22:25;101984.09;;;31.31
63689;BMP280;54895;40.928;14.480;2022-10-26T14:24:53;101988.63;;;31.42
63689;BMP280;54895;40.928;14.480;2022-10-26T14:27:38;101983.00;;;31.38
63689;BMP280;54895;40.928;14.480;2022-10-26T14:30:49;101991.31;;;31.21
63689;BMP280;54895;40.928;14.480;2022-10-26T14:32:51;101989.22;;;31.19
63689;BMP280;54895;40.928;14.480;2022-10-26T14:35:50;101998.81;;;31.38
63689;BMP280;54895;40.928;14.480;2022-10-26T14:38:15;101996.50;;;31.51
63689;BMP280;54895;40.928;14.480;2022-10-26T14:41:00;101994.50;;;31.73
63689;BMP280;54895;40.928;14.480;2022-10-26T14:43:26;101998.59;;;31.72
63689;BMP280;54895;40.928;14.480;2022-10-26T14:45:52;101987.53;;;31.92
63689;BMP280;54895;40.928;14.480;2022-10-26T14:51:08;101994.75;;;31.81
63689;BMP280;54895;40.928;14.480;2022-10-26T14:53:39;101989.63;;;31.12
63689;BMP280;54895;40.928;14.480;2022-10-26T14:56:15;101993.41;;;31.03
63689;BMP280;54895;40.928;14.480;2022-10-26T14:58:42;101994.69;;;31.39
63689;BMP280;54895;40.928;14.480;2022-10-26T15:01:21;101993.16;;;31.34
63689;BMP280;54895;40.928;14.480;2022-10-26T15:03:56;101999.22;;;31.11
63689;BMP280;54895;40.928;14.480;2022-10-26T15:08:59;101995.91;;;30.95
63689;BMP280;54895;40.928;14.480;2022-10-26T15:11:26;101991.34;;;30.47
63689;BMP280;54895;40.928;14.480;2022-10-26T15:13:52;101986.75;;;30.71
63689;BMP280;54895;40.928;14.480;2022-10-26T15:16:20;101990.25;;;30.54
63689;BMP280;54895;40.928;14.480;2022-10-26T15:19:08;101988.66;;;30.14
63689;BMP280;54895;40.928;14.480;2022-10-26T15:21:37;101984.19;;;30.40
63689;BMP280;54895;40.928;14.480;2022-10-26T15:24:24;102002.09;;;30.24
63689;BMP280;54895;40.928;14.480;2022-10-26T15:26:51;101993.09;;;29.88
63689;BMP280;54895;40.928;14.480;2022-10-26T15:31:59;101989.13;;;29.28
63689;BMP280;54895;40.928;14.480;2022-10-26T15:34:25;101989.22;;;29.14
63689;BMP280;54895;40.928;14.480;2022-10-26T15:36:51;101991.28;;;28.85
63689;BMP280;54895;40.928;14.480;2022-10-26T15:39:17;101980.63;;;28.33
63689;BMP280;54895;40.928;14.480;2022-10-26T15:41:44;101976.25;;;27.86
63689;BMP280;54895;40.928;14.480;2022-10-26T15:44:12;101982.03;;;27.78
63689;BMP280;54895;40.928;14.480;2022-10-26T15:46:39;101992.16;;;27.62
63689;BMP280;54895;40.928;14.480;2022-10-26T15:49:06;101979.91;;;27.50
63689;BMP280;54895;40.928;14.480;2022-10-26T15:51:33;101995.00;;;27.64
63689;BMP280;54895;40.928;14.480;2022-10-26T15:54:02;101993.34;;;27.59
63689;BMP280;54895;40.928;14.480;2022-10-26T15:56:29;101982.50;;;27.35